sensor_id;sensor_type;location;lat;lon;timestamp;pressure;altitude;pressure_sealevel;temperature;humidity
9249;BME280;4660;41.768;26.198;2023-04-02T00:01:48;99912.03;;;11.34;100.00
9249;BME280;4660;41.768;26.198;2023-04-02T00:04:21;99908.47;;;11.17;100.00
9249;BME280;4660;41.768;26.198;2023-04-02T00:06:49;99918.03;;;11.03;100.00
9249;BME280;4660;41.768;26.198;2023-04-02T00:09:28;99913.84;;;11.00;100.00
9249;BME280;4660;41.768;26.198;2023-04-02T00:11:55;99908.41;;;10.92;100.00
9249;BME280;4660;41.768;26.198;2023-04-02T00:16:47;99919.34;;;10.91;100.00
9249;BME280;4660;41.768;26.198;2023-04-02T00:19:20;99907.06;;;10.88;100.00
9249;BME280;4660;41.768;26.198;2023-04-02T00:21:48;99912.97;;;11.00;100.00
9249;BME280;4660;41.768;26.198;2023-04-02T00:24:17;99920.72;;;11.03;100.00
9249;BME280;4660;41.768;26.198;2023-04-02T00:26:48;99926.75;;;10.89;100.00
9249;BME280;4660;41.768;26.198;2023-04-02T00:29:15;99913.72;;;10.76;100.00
9249;BME280;4660;41.768;26.198;2023-04-02T00:31:44;99922.25;;;10.63;100.00
9249;BME280;4660;41.768;26.198;2023-04-02T00:34:22;99920.25;;;10.65;100.00
9249;BME280;4660;41.768;26.198;2023-04-02T00:36:51;99924.59;;;10.58;100.00
9249;BME280;4660;41.768;26.198;2023-04-02T00:39:28;99915.84;;;10.64;100.00
9249;BME280;4660;41.768;26.198;2023-04-02T00:41:57;99930.34;;;10.71;100.00
9249;BME280;4660;41.768;26.198;2023-04-02T00:44:33;99915.72;;;10.66;100.00
9249;BME280;4660;41.768;26.198;2023-04-02T00:47:09;99920.25;;;10.65;100.00
9249;BME280;4660;41.768;26.198;2023-04-02T00:49:39;99912.88;;;10.67;100.00
9249;BME280;4660;41.768;26.198;2023-04-02T00:52:12;99898.41;;;10.68;100.00
9249;BME280;4660;41.768;26.198;2023-04-02T00:54:53;99912.22;;;10.73;100.00
9249;BME280;4660;41.768;26.198;2023-04-02T00:57:24;99921.72;;;10.94;100.00
9249;BME280;4660;41.768;26.198;2023-04-02T00:59:57;99931.13;;;10.98;100.00
9249;BME280;4660;41.768;26.198;2023-04-02T01:02:29;99932.19;;;11.13;100.00
9249;BME280;4660;41.768;26.198;2023-04-02T01:05:01;99937.03;;;11.01;100.00
9249;BME280;4660;41.768;26.198;2023-04-02T01:18:46;99922.28;;;10.71;100.00
9249;BME280;4660;41.768;26.198;2023-04-02T01:24:00;99935.72;;;10.71;100.00
9249;BME280;4660;41.768;26.198;2023-04-02T01:29:16;99918.19;;;10.93;100.00
9249;BME280;4660;41.768;26.198;2023-04-02T01:31:44;99917.00;;;10.96;100.00
9249;BME280;4660;41.768;26.198;2023-04-02T01:34:13;99918.28;;;10.75;100.00
9249;BME280;4660;41.768;26.198;2023-04-02T01:36:51;99923.09;;;10.64;100.00
9249;BME280;4660;41.768;26.198;2023-04-02T01:42:00;99930.41;;;10.80;100.00
9249;BME280;4660;41.768;26.198;2023-04-02T01:44:38;99928.38;;;10.82;100.00
9249;BME280;4660;41.768;26.198;2023-04-02T01:47:10;99923.69;;;10.84;100.00
9249;BME280;4660;41.768;26.198;2023-04-02T01:49:36;99921.81;;;10.76;100.00
9249;BME280;4660;41.768;26.198;2023-04-02T01:52:01;99915.59;;;10.75;100.00
9249;BME280;4660;41.768;26.198;2023-04-02T01:54:28;99921.31;;;10.72;100.00
9249;BME280;4660;41.768;26.198;2023-04-02T01:56:54;99920.47;;;10.72;100.00
9249;BME280;4660;41.768;26.198;2023-04-02T01:59:23;99925.28;;;10.60;100.00
9249;BME280;4660;41.768;26.198;2023-04-02T02:01:57;99923.91;;;10.56;100.00
9249;BME280;4660;41.768;26.198;2023-04-02T02:04:25;99929.16;;;10.32;100.00
9249;BME280;4660;41.768;26.198;2023-04-02T02:06:51;99922.78;;;10.33;100.00
9249;BME280;4660;41.768;26.198;2023-04-02T02:09:22;99933.00;;;10.63;100.00
9249;BME280;4660;41.768;26.198;2023-04-02T02:11:50;99947.59;;;10.87;100.00
9249;BME280;4660;41.768;26.198;2023-04-02T02:14:17;99944.59;;;10.98;100.00
9249;BME280;4660;41.768;26.198;2023-04-02T02:16:44;99945.22;;;10.92;100.00
9249;BME280;4660;41.768;26.198;2023-04-02T02:19:22;99951.94;;;10.80;100.00
9249;BME280;4660;41.768;26.198;2023-04-02T02:21:51;99950.81;;;10.64;100.00
9249;BME280;4660;41.768;26.198;2023-04-02T02:24:28;99950.41;;;10.43;100.00
9249;BME280;4660;41.768;26.198;2023-04-02T02:29:55;99952.72;;;10.38;100.00
9249;BME280;4660;41.768;26.198;2023-04-02T02:32:27;99952.09;;;10.44;100.00
9249;BME280;4660;41.768;26.198;2023-04-02T02:35:03;99954.13;;;10.50;100.00
9249;BME280;4660;41.768;26.198;2023-04-02T02:37:39;99954.34;;;10.31;100.00
9249;BME280;4660;41.768;26.198;2023-04-02T02:40:11;99957.50;;;10.52;100.00
9249;BME280;4660;41.768;26.198;2023-04-02T02:42:46;99962.03;;;10.52;100.00
9249;BME280;4660;41.768;26.198;2023-04-02T02:45:16;99965.03;;;10.48;100.00
9249;BME280;4660;41.768;26.198;2023-04-02T02:47:44;99964.22;;;10.56;100.00
9249;BME280;4660;41.768;26.198;2023-04-02T02:50:19;99966.97;;;10.64;100.00
9249;BME280;4660;41.768;26.198;2023-04-02T02:52:50;99960.28;;;10.68;100.00
9249;BME280;4660;41.768;26.198;2023-04-02T02:55:20;99964.66;;;10.69;100.00
9249;BME280;4660;41.768;26.198;2023-04-02T02:58:02;99961.91;;;10.61;100.00
9249;BME280;4660;41.768;26.198;2023-04-02T03:00:31;99955.44;;;10.46;100.00
9249;BME280;4660;41.768;26.198;2023-04-02T03:02:58;99953.78;;;10.45;100.00
9249;BME280;4660;41.768;26.198;2023-04-02T03:05:25;99948.72;;;10.50;100.00
9249;BME280;4660;41.768;26.198;2023-04-02T03:07:54;99957.72;;;10.59;100.00
9249;BME280;4660;41.768;26.198;2023-04-02T03:10:38;99949.09;;;10.55;100.00
9249;BME280;4660;41.768;26.198;2023-04-02T03:13:23;99956.56;;;10.69;100.00
9249;BME280;4660;41.768;26.198;2023-04-02T03:16:15;99957.25;;;10.71;100.00
9249;BME280;4660;41.768;26.198;2023-04-02T03:21:20;99961.78;;;10.71;100.00
9249;BME280;4660;41.768;26.198;2023-04-02T03:23:53;99954.53;;;10.63;100.00
9249;BME280;4660;41.768;26.198;2023-04-02T03:29:02;99971.53;;;10.38;100.00
9249;BME280;4660;41.768;26.198;2023-04-02T03:31:37;99973.91;;;10.41;100.00
9249;BME280;4660;41.768;26.198;2023-04-02T03:34:11;99977.44;;;10.41;100.00
9249;BME280;4660;41.768;26.198;2023-04-02T03:36:42;99978.97;;;10.44;100.00
9249;BME280;4660;41.768;26.198;2023-04-02T03:39:21;99980.28;;;10.40;100.00
9249;BME280;4660;41.768;26.198;2023-04-02T03:42:04;99986.00;;;10.71;100.00
9249;BME280;4660;41.768;26.198;2023-04-02T03:44:44;99978.47;;;10.74;100.00
9249;BME280;4660;41.768;26.198;2023-04-02T03:47:23;99962.19;;;10.50;100.00
9249;BME280;4660;41.768;26.198;2023-04-02T03:50:02;99978.69;;;10.55;100.00
9249;BME280;4660;41.768;26.198;2023-04-02T03:52:33;99977.81;;;10.46;100.00
9249;BME280;4660;41.768;26.198;2023-04-02T03:55:00;99972.81;;;10.52;100.00
9249;BME280;4660;41.768;26.198;2023-04-02T03:57:39;99977.97;;;10.45;100.00
9249;BME280;4660;41.768;26.198;2023-04-02T04:03:15;99983.06;;;10.56;100.00
9249;BME280;4660;41.768;26.198;2023-04-02T04:05:50;99984.59;;;10.59;100.00
9249;BME280;4660;41.768;26.198;2023-04-02T04:08:23;99993.25;;;10.44;100.00
9249;BME280;4660;41.768;26.198;2023-04-02T04:10:56;99987.66;;;10.38;100.00
9249;BME280;4660;41.768;26.198;2023-04-02T04:13:30;99995.84;;;10.54;100.00
9249;BME280;4660;41.768;26.198;2023-04-02T04:16:07;99996.69;;;10.89;100.00
9249;BME280;4660;41.768;26.198;2023-04-02T04:18:37;100000.94;;;10.99;100.00
9249;BME280;4660;41.768;26.198;2023-04-02T04:21:15;100006.41;;;10.82;100.00
9249;BME280;4660;41.768;26.198;2023-04-02T04:23:56;100001.94;;;10.64;100.00
9249;BME280;4660;41.768;26.198;2023-04-02T04:26:55;99997.34;;;10.57;100.00
9249;BME280;4660;41.768;26.198;2023-04-02T04:29:44;100014.03;;;10.60;100.00
9249;BME280;4660;41.768;26.198;2023-04-02T04:34:56;100005.59;;;10.55;100.00
9249;BME280;4660;41.768;26.198;2023-04-02T04:37:30;100001.44;;;10.61;100.00
9249;BME280;4660;41.768;26.198;2023-04-02T04:42:40;100011.63;;;10.83;100.00
9249;BME280;4660;41.768;26.198;2023-04-02T04:45:33;100012.53;;;11.00;100.00
9249;BME280;4660;41.768;26.198;2023-04-02T04:48:14;100013.56;;;10.99;100.00
9249;BME280;4660;41.768;26.198;2023-04-02T04:50:49;100009.41;;;11.13;100.00
9249;BME280;4660;41.768;26.198;2023-04-02T04:53:24;100029.50;;;11.35;100.00
9249;BME280;4660;41.768;26.198;2023-04-02T04:56:02;100021.31;;;11.44;100.00
9249;BME280;4660;41.768;26.198;2023-04-02T04:59:02;100029.25;;;11.62;100.00
9249;BME280;4660;41.768;26.198;2023-04-02T05:01:37;100026.56;;;11.62;100.00
9249;BME280;4660;41.768;26.198;2023-04-02T05:04:30;100031.84;;;11.80;100.00
9249;BME280;4660;41.768;26.198;2023-04-02T05:07:04;100036.88;;;11.75;100.00
9249;BME280;4660;41.768;26.198;2023-04-02T05:09:44;100038.09;;;11.80;100.00
9249;BME280;4660;41.768;26.198;2023-04-02T05:12:41;100036.69;;;11.68;100.00
9249;BME280;4660;41.768;26.198;2023-04-02T05:15:24;100032.66;;;11.72;100.00
9249;BME280;4660;41.768;26.198;2023-04-02T05:20:43;100041.81;;;11.88;100.00
9249;BME280;4660;41.768;26.198;2023-04-02T05:25:52;100038.81;;;12.23;100.00
9249;BME280;4660;41.768;26.198;2023-04-02T05:28:29;100047.06;;;12.30;100.00
9249;BME280;4660;41.768;26.198;2023-04-02T05:31:01;100047.22;;;12.28;100.00
9249;BME280;4660;41.768;26.198;2023-04-02T05:33:30;100043.69;;;12.20;100.00
9249;BME280;4660;41.768;26.198;2023-04-02T05:36:05;100037.63;;;12.18;100.00
9249;BME280;4660;41.768;26.198;2023-04-02T05:38:35;100039.47;;;12.25;100.00
9249;BME280;4660;41.768;26.198;2023-04-02T05:41:24;100034.56;;;12.53;100.00
9249;BME280;4660;41.768;26.198;2023-04-02T05:44:01;100013.81;;;12.62;100.00
9249;BME280;4660;41.768;26.198;2023-04-02T05:46:32;100041.25;;;12.90;100.00
9249;BME280;4660;41.768;26.198;2023-04-02T05:48:59;100032.81;;;12.93;100.00
9249;BME280;4660;41.768;26.198;2023-04-02T05:51:30;100035.19;;;12.88;100.00
9249;BME280;4660;41.768;26.198;2023-04-02T05:54:02;100036.56;;;12.76;100.00
9249;BME280;4660;41.768;26.198;2023-04-02T05:56:51;100045.56;;;13.15;100.00
9249;BME280;4660;41.768;26.198;2023-04-02T05:59:22;100037.97;;;13.11;100.00
9249;BME280;4660;41.768;26.198;2023-04-02T06:02:05;100042.63;;;13.33;100.00
9249;BME280;4660;41.768;26.198;2023-04-02T06:04:52;100052.09;;;13.37;100.00
9249;BME280;4660;41.768;26.198;2023-04-02T06:07:31;100050.38;;;13.44;100.00
9249;BME280;4660;41.768;26.198;2023-04-02T06:10:12;100048.41;;;13.61;100.00
9249;BME280;4660;41.768;26.198;2023-04-02T06:12:54;100056.34;;;13.63;100.00
9249;BME280;4660;41.768;26.198;2023-04-02T06:15:23;100062.09;;;13.91;100.00
9249;BME280;4660;41.768;26.198;2023-04-02T06:18:00;100062.78;;;14.16;100.00
9249;BME280;4660;41.768;26.198;2023-04-02T06:20:30;100058.38;;;14.15;100.00
9249;BME280;4660;41.768;26.198;2023-04-02T06:23:26;100070.09;;;14.30;100.00
9249;BME280;4660;41.768;26.198;2023-04-02T06:26:04;100066.38;;;14.31;100.00
9249;BME280;4660;41.768;26.198;2023-04-02T06:28:46;100053.88;;;14.30;100.00
9249;BME280;4660;41.768;26.198;2023-04-02T06:31:29;100072.63;;;14.54;100.00
9249;BME280;4660;41.768;26.198;2023-04-02T06:33:59;100074.97;;;14.57;100.00
9249;BME280;4660;41.768;26.198;2023-04-02T06:36:26;100070.88;;;14.62;100.00
9249;BME280;4660;41.768;26.198;2023-04-02T06:38:54;100073.38;;;14.63;100.00
9249;BME280;4660;41.768;26.198;2023-04-02T06:41:23;100079.03;;;14.76;100.00
9249;BME280;4660;41.768;26.198;2023-04-02T06:43:59;100065.13;;;14.79;100.00
9249;BME280;4660;41.768;26.198;2023-04-02T06:49:21;100081.38;;;14.79;100.00
9249;BME280;4660;41.768;26.198;2023-04-02T06:51:45;100073.06;;;14.81;100.00
9249;BME280;4660;41.768;26.198;2023-04-02T06:54:13;100078.19;;;14.76;100.00
9249;BME280;4660;41.768;26.198;2023-04-02T06:56:45;100064.63;;;14.76;100.00
9249;BME280;4660;41.768;26.198;2023-04-02T06:59:13;100068.34;;;14.60;100.00
9249;BME280;4660;41.768;26.198;2023-04-02T07:04:15;100081.50;;;14.63;100.00
9249;BME280;4660;41.768;26.198;2023-04-02T07:06:42;100076.59;;;14.67;100.00
9249;BME280;4660;41.768;26.198;2023-04-02T07:09:07;100086.72;;;14.88;100.00
9249;BME280;4660;41.768;26.198;2023-04-02T07:11:33;100087.06;;;14.99;100.00
9249;BME280;4660;41.768;26.198;2023-04-02T07:13:59;100104.47;;;15.20;100.00
9249;BME280;4660;41.768;26.198;2023-04-02T07:16:26;100108.13;;;15.41;100.00
9249;BME280;4660;41.768;26.198;2023-04-02T07:18:53;100114.94;;;15.52;100.00
9249;BME280;4660;41.768;26.198;2023-04-02T07:21:20;100117.38;;;15.77;100.00
9249;BME280;4660;41.768;26.198;2023-04-02T07:23:46;100121.28;;;15.89;100.00
9249;BME280;4660;41.768;26.198;2023-04-02T07:26:14;100130.97;;;15.98;100.00
9249;BME280;4660;41.768;26.198;2023-04-02T07:28:40;100121.72;;;16.29;100.00
9249;BME280;4660;41.768;26.198;2023-04-02T07:31:16;100120.50;;;16.31;100.00
9249;BME280;4660;41.768;26.198;2023-04-02T07:33:43;100120.56;;;16.38;100.00
9249;BME280;4660;41.768;26.198;2023-04-02T07:36:13;100125.22;;;16.44;100.00
9249;BME280;4660;41.768;26.198;2023-04-02T07:38:39;100110.28;;;16.55;100.00
9249;BME280;4660;41.768;26.198;2023-04-02T07:41:05;100126.00;;;16.59;100.00
9249;BME280;4660;41.768;26.198;2023-04-02T07:43:31;100123.94;;;16.83;100.00
9249;BME280;4660;41.768;26.198;2023-04-02T07:45:56;100128.91;;;17.07;100.00
9249;BME280;4660;41.768;26.198;2023-04-02T07:48:22;100123.50;;;17.42;100.00
9249;BME280;4660;41.768;26.198;2023-04-02T07:50:48;100119.81;;;17.56;100.00
9249;BME280;4660;41.768;26.198;2023-04-02T07:53:34;100123.31;;;17.43;80.92
9249;BME280;4660;41.768;26.198;2023-04-02T07:56:01;100126.91;;;17.50;82.68
9249;BME280;4660;41.768;26.198;2023-04-02T07:58:28;100128.59;;;17.51;75.47
9249;BME280;4660;41.768;26.198;2023-04-02T08:00:54;100116.22;;;17.49;76.04
9249;BME280;4660;41.768;26.198;2023-04-02T08:03:20;100131.19;;;17.66;77.40
9249;BME280;4660;41.768;26.198;2023-04-02T08:05:53;100133.81;;;17.87;75.18
9249;BME280;4660;41.768;26.198;2023-04-02T08:08:20;100137.22;;;18.03;74.49
9249;BME280;4660;41.768;26.198;2023-04-02T08:10:46;100124.59;;;17.88;75.45
9249;BME280;4660;41.768;26.198;2023-04-02T08:13:12;100127.81;;;18.12;77.46
9249;BME280;4660;41.768;26.198;2023-04-02T08:15:38;100130.19;;;18.35;76.82
9249;BME280;4660;41.768;26.198;2023-04-02T08:18:04;100129.78;;;18.45;74.48
9249;BME280;4660;41.768;26.198;2023-04-02T08:20:29;100125.78;;;18.40;71.46
9249;BME280;4660;41.768;26.198;2023-04-02T08:22:55;100134.22;;;18.59;73.21
9249;BME280;4660;41.768;26.198;2023-04-02T08:25:20;100124.38;;;18.71;68.36
9249;BME280;4660;41.768;26.198;2023-04-02T08:27:46;100131.75;;;18.90;68.58
9249;BME280;4660;41.768;26.198;2023-04-02T08:30:13;100125.22;;;19.05;67.30
9249;BME280;4660;41.768;26.198;2023-04-02T08:32:38;100111.97;;;19.21;66.66
9249;BME280;4660;41.768;26.198;2023-04-02T08:35:09;100131.00;;;19.55;66.82
9249;BME280;4660;41.768;26.198;2023-04-02T08:37:35;100123.88;;;19.53;63.52
9249;BME280;4660;41.768;26.198;2023-04-02T08:40:01;100120.47;;;19.71;62.10
9249;BME280;4660;41.768;26.198;2023-04-02T08:42:38;100126.88;;;19.32;61.92
9249;BME280;4660;41.768;26.198;2023-04-02T08:47:55;100120.16;;;19.35;63.47
9249;BME280;4660;41.768;26.198;2023-04-02T08:52:47;100124.19;;;19.06;64.81
9249;BME280;4660;41.768;26.198;2023-04-02T09:00:41;100111.53;;;18.25;64.63
9249;BME280;4660;41.768;26.198;2023-04-02T09:05:42;100108.34;;;18.02;64.77
9249;BME280;4660;41.768;26.198;2023-04-02T09:08:16;100122.31;;;17.92;65.38
9249;BME280;4660;41.768;26.198;2023-04-02T09:10:49;100117.38;;;18.15;65.63
9249;BME280;4660;41.768;26.198;2023-04-02T09:13:22;100130.19;;;18.41;63.42
9249;BME280;4660;41.768;26.198;2023-04-02T09:15:49;100141.94;;;18.49;60.39
9249;BME280;4660;41.768;26.198;2023-04-02T09:18:18;100109.44;;;18.40;61.79
9249;BME280;4660;41.768;26.198;2023-04-02T09:20:44;100118.91;;;18.64;61.94
9249;BME280;4660;41.768;26.198;2023-04-02T09:23:22;100121.88;;;18.76;61.88
9249;BME280;4660;41.768;26.198;2023-04-02T09:25:52;100125.03;;;18.80;60.88
9249;BME280;4660;41.768;26.198;2023-04-02T09:28:19;100113.09;;;18.74;59.45
9249;BME280;4660;41.768;26.198;2023-04-02T09:31:08;100111.41;;;18.73;60.11
9249;BME280;4660;41.768;26.198;2023-04-02T09:33:47;100111.81;;;18.77;61.32
9249;BME280;4660;41.768;26.198;2023-04-02T09:36:19;100091.69;;;18.58;59.61
9249;BME280;4660;41.768;26.198;2023-04-02T09:39:02;100114.97;;;18.67;61.70
9249;BME280;4660;41.768;26.198;2023-04-02T09:41:33;100104.69;;;18.76;60.62
9249;BME280;4660;41.768;26.198;2023-04-02T09:44:12;100116.88;;;18.86;60.39
9249;BME280;4660;41.768;26.198;2023-04-02T09:46:47;100109.72;;;18.85;58.34
9249;BME280;4660;41.768;26.198;2023-04-02T09:49:14;100112.25;;;18.93;59.68
9249;BME280;4660;41.768;26.198;2023-04-02T09:51:42;100093.34;;;18.92;56.64
9249;BME280;4660;41.768;26.198;2023-04-02T09:54:15;100101.50;;;19.18;54.09
9249;BME280;4660;41.768;26.198;2023-04-02T09:57:01;100116.75;;;19.52;54.50
9249;BME280;4660;41.768;26.198;2023-04-02T09:59:27;100112.78;;;19.35;53.32
9249;BME280;4660;41.768;26.198;2023-04-02T10:04:42;100101.00;;;19.61;53.00
9249;BME280;4660;41.768;26.198;2023-04-02T10:07:30;100089.78;;;19.89;53.51
9249;BME280;4660;41.768;26.198;2023-04-02T10:10:01;100086.19;;;19.89;53.18
9249;BME280;4660;41.768;26.198;2023-04-02T10:12:29;100084.31;;;19.89;52.78
9249;BME280;4660;41.768;26.198;2023-04-02T10:15:02;100089.25;;;20.05;52.70
9249;BME280;4660;41.768;26.198;2023-04-02T10:17:31;100088.50;;;19.85;47.35
9249;BME280;4660;41.768;26.198;2023-04-02T10:20:05;100098.75;;;19.96;46.15
9249;BME280;4660;41.768;26.198;2023-04-02T10:22:36;100093.25;;;20.10;45.17
9249;BME280;4660;41.768;26.198;2023-04-02T10:25:01;100088.34;;;20.18;46.29
9249;BME280;4660;41.768;26.198;2023-04-02T10:27:41;100090.00;;;20.19;48.21
9249;BME280;4660;41.768;26.198;2023-04-02T10:30:19;100087.84;;;20.28;48.58
9249;BME280;4660;41.768;26.198;2023-04-02T10:32:54;100089.91;;;20.39;46.66
9249;BME280;4660;41.768;26.198;2023-04-02T10:38:30;100083.94;;;20.17;45.17
9249;BME280;4660;41.768;26.198;2023-04-02T10:51:57;100083.97;;;20.11;45.72
9249;BME280;4660;41.768;26.198;2023-04-02T10:57:03;100075.94;;;20.22;45.46
9249;BME280;4660;41.768;26.198;2023-04-02T10:59:32;100075.34;;;20.14;46.12
9249;BME280;4660;41.768;26.198;2023-04-02T11:02:01;100077.72;;;20.35;46.79
9249;BME280;4660;41.768;26.198;2023-04-02T11:04:34;100068.50;;;20.36;45.13
9249;BME280;4660;41.768;26.198;2023-04-02T11:07:14;100065.25;;;20.52;44.95
9249;BME280;4660;41.768;26.198;2023-04-02T11:09:45;100066.97;;;20.47;45.91
9249;BME280;4660;41.768;26.198;2023-04-02T11:12:38;100071.25;;;20.61;44.77
9249;BME280;4660;41.768;26.198;2023-04-02T11:15:17;100066.19;;;20.65;44.20
9249;BME280;4660;41.768;26.198;2023-04-02T11:17:43;100065.41;;;20.57;44.55
9249;BME280;4660;41.768;26.198;2023-04-02T11:23:16;100061.88;;;20.75;43.95
9249;BME280;4660;41.768;26.198;2023-04-02T11:25:42;100059.78;;;20.52;44.30
9249;BME280;4660;41.768;26.198;2023-04-02T11:28:29;100019.56;;;20.59;45.34
9249;BME280;4660;41.768;26.198;2023-04-02T11:30:56;100032.47;;;20.71;44.39
9249;BME280;4660;41.768;26.198;2023-04-02T11:35:55;100042.72;;;21.00;44.37
9249;BME280;4660;41.768;26.198;2023-04-02T11:40:51;100046.66;;;20.86;44.88
9249;BME280;4660;41.768;26.198;2023-04-02T11:48:50;100027.19;;;21.37;44.04
9249;BME280;4660;41.768;26.198;2023-04-02T11:53:44;100035.78;;;21.89;42.45
9249;BME280;4660;41.768;26.198;2023-04-02T11:56:43;100039.84;;;22.17;40.99
9249;BME280;4660;41.768;26.198;2023-04-02T11:59:20;100041.75;;;21.98;40.58
9249;BME280;4660;41.768;26.198;2023-04-02T12:10:15;100031.03;;;22.27;41.16
9249;BME280;4660;41.768;26.198;2023-04-02T12:12:41;100032.63;;;22.46;40.50
9249;BME280;4660;41.768;26.198;2023-04-02T12:18:16;100021.81;;;22.51;39.94
9249;BME280;4660;41.768;26.198;2023-04-02T12:20:52;100000.34;;;22.48;40.61
9249;BME280;4660;41.768;26.198;2023-04-02T12:23:34;100014.31;;;22.58;40.48
9249;BME280;4660;41.768;26.198;2023-04-02T12:26:25;100008.19;;;22.33;39.39
9249;BME280;4660;41.768;26.198;2023-04-02T12:28:50;100005.09;;;22.41;41.82
9249;BME280;4660;41.768;26.198;2023-04-02T12:31:16;100001.53;;;22.75;40.55
9249;BME280;4660;41.768;26.198;2023-04-02T12:33:44;99986.75;;;22.76;40.11
9249;BME280;4660;41.768;26.198;2023-04-02T12:39:12;100000.00;;;22.68;39.96
9249;BME280;4660;41.768;26.198;2023-04-02T12:41:40;99986.41;;;22.38;40.37
9249;BME280;4660;41.768;26.198;2023-04-02T12:44:13;99978.06;;;22.44;40.32
9249;BME280;4660;41.768;26.198;2023-04-02T12:46:41;99972.94;;;22.60;41.19
9249;BME280;4660;41.768;26.198;2023-04-02T12:51:36;99956.63;;;22.88;40.54
9249;BME280;4660;41.768;26.198;2023-04-02T12:54:02;99977.09;;;23.09;40.95
9249;BME280;4660;41.768;26.198;2023-04-02T12:56:28;99972.78;;;23.13;41.61
9249;BME280;4660;41.768;26.198;2023-04-02T12:58:58;99962.94;;;23.00;42.68
9249;BME280;4660;41.768;26.198;2023-04-02T13:01:26;99956.94;;;23.15;42.28
9249;BME280;4660;41.768;26.198;2023-04-02T13:06:28;99954.50;;;23.30;42.29
9249;BME280;4660;41.768;26.198;2023-04-02T13:08:55;99957.81;;;23.32;43.02
9249;BME280;4660;41.768;26.198;2023-04-02T13:11:21;99955.28;;;23.43;43.96
9249;BME280;4660;41.768;26.198;2023-04-02T13:13:48;99944.75;;;23.23;44.71
9249;BME280;4660;41.768;26.198;2023-04-02T13:18:45;99954.91;;;23.51;47.30
9249;BME280;4660;41.768;26.198;2023-04-02T13:23:46;99911.41;;;23.59;47.67
9249;BME280;4660;41.768;26.198;2023-04-02T13:26:17;99939.94;;;23.58;47.21
9249;BME280;4660;41.768;26.198;2023-04-02T13:29:38;99936.56;;;23.40;48.62
9249;BME280;4660;41.768;26.198;2023-04-02T13:31:46;99949.41;;;23.51;48.71
9249;BME280;4660;41.768;26.198;2023-04-02T13:34:12;99929.31;;;23.62;49.66
9249;BME280;4660;41.768;26.198;2023-04-02T13:36:38;99938.75;;;23.66;48.50
9249;BME280;4660;41.768;26.198;2023-04-02T13:39:04;99932.53;;;23.59;48.40
9249;BME280;4660;41.768;26.198;2023-04-02T13:41:32;99944.75;;;23.51;48.66
9249;BME280;4660;41.768;26.198;2023-04-02T13:44:00;99931.84;;;23.23;49.97
9249;BME280;4660;41.768;26.198;2023-04-02T13:46:29;99922.38;;;22.91;51.21
9249;BME280;4660;41.768;26.198;2023-04-02T13:48:56;99917.47;;;22.81;51.38
9249;BME280;4660;41.768;26.198;2023-04-02T13:51:49;99922.88;;;22.88;52.75
9249;BME280;4660;41.768;26.198;2023-04-02T13:56:47;99919.50;;;22.86;54.44
9249;BME280;4660;41.768;26.198;2023-04-02T13:59:13;99925.88;;;22.86;54.24
9249;BME280;4660;41.768;26.198;2023-04-02T14:01:40;99921.44;;;22.50;54.38
9249;BME280;4660;41.768;26.198;2023-04-02T14:04:09;99920.16;;;22.29;55.79
9249;BME280;4660;41.768;26.198;2023-04-02T14:20:18;99923.53;;;22.01;58.87
9249;BME280;4660;41.768;26.198;2023-04-02T14:23:10;99920.31;;;21.62;59.64
9249;BME280;4660;41.768;26.198;2023-04-02T14:32:00;99926.41;;;20.98;61.83
9249;BME280;4660;41.768;26.198;2023-04-02T14:40:08;99927.44;;;21.52;59.93
9249;BME280;4660;41.768;26.198;2023-04-02T14:43:14;99914.19;;;21.49;60.22
9249;BME280;4660;41.768;26.198;2023-04-02T14:46:02;99916.00;;;21.06;61.70
9249;BME280;4660;41.768;26.198;2023-04-02T14:48:36;99913.72;;;20.85;63.24
9249;BME280;4660;41.768;26.198;2023-04-02T14:51:32;99900.13;;;20.78;63.93
9249;BME280;4660;41.768;26.198;2023-04-02T14:56:54;99907.13;;;20.74;64.24
9249;BME280;4660;41.768;26.198;2023-04-02T15:02:23;99921.69;;;21.05;63.48
9249;BME280;4660;41.768;26.198;2023-04-02T15:05:01;99932.72;;;21.16;62.74
9249;BME280;4660;41.768;26.198;2023-04-02T15:07:35;99925.94;;;21.19;62.52
9249;BME280;4660;41.768;26.198;2023-04-02T15:12:47;99921.91;;;21.22;63.67
9249;BME280;4660;41.768;26.198;2023-04-02T15:15:35;99922.22;;;21.13;64.61
9249;BME280;4660;41.768;26.198;2023-04-02T15:18:04;99922.09;;;21.08;65.41
9249;BME280;4660;41.768;26.198;2023-04-02T15:20:38;99928.53;;;21.14;66.25
9249;BME280;4660;41.768;26.198;2023-04-02T15:31:53;99926.72;;;21.08;67.50
9249;BME280;4660;41.768;26.198;2023-04-02T15:34:43;99937.94;;;21.18;67.18
9249;BME280;4660;41.768;26.198;2023-04-02T15:40:36;99942.28;;;20.89;66.38
9249;BME280;4660;41.768;26.198;2023-04-02T15:49:38;99948.03;;;20.63;68.17
9249;BME280;4660;41.768;26.198;2023-04-02T16:00:14;99956.09;;;20.08;71.66
9249;BME280;4660;41.768;26.198;2023-04-02T16:02:50;99957.06;;;19.88;71.26
9249;BME280;4660;41.768;26.198;2023-04-02T16:06:08;99960.91;;;19.81;70.94
9249;BME280;4660;41.768;26.198;2023-04-02T16:11:18;99965.41;;;19.62;71.53
9249;BME280;4660;41.768;26.198;2023-04-02T16:13:45;99965.63;;;19.53;72.04
9249;BME280;4660;41.768;26.198;2023-04-02T16:16:23;99956.84;;;19.51;72.64
9249;BME280;4660;41.768;26.198;2023-04-02T16:18:59;99948.25;;;19.48;72.84
9249;BME280;4660;41.768;26.198;2023-04-02T16:21:44;99959.34;;;19.53;73.13
9249;BME280;4660;41.768;26.198;2023-04-02T16:24:12;99955.16;;;19.50;73.95
9249;BME280;4660;41.768;26.198;2023-04-02T16:26:48;99960.59;;;19.57;73.71
9249;BME280;4660;41.768;26.198;2023-04-02T16:43:31;99969.81;;;19.11;76.58
9249;BME280;4660;41.768;26.198;2023-04-02T16:46:15;99973.38;;;19.12;76.67
9249;BME280;4660;41.768;26.198;2023-04-02T16:48:58;99970.03;;;19.10;77.08
9249;BME280;4660;41.768;26.198;2023-04-02T16:51:48;99967.97;;;18.98;77.43
9249;BME280;4660;41.768;26.198;2023-04-02T16:54:38;99966.91;;;18.93;77.96